This is the latest recevied weather packets stored in our database for station/object M0ADS. If no packets are shown the sender has not sent any weather packets the latest 1 day(s).
| Time | Temp. | Humidity | Pressure | Rain* | Wind** | Luminosity | Snow |
|---|---|---|---|---|---|---|---|
| 1777981968 | 14.44° C | 57% | 1013.1 hPa | 0 mm | 0 m/s | - | - |
| 1777981068 | 14.44° C | 56% | 1013.1 hPa | 0 mm | 0 m/s | - | - |
| 1777980168 | 13.89° C | 60% | 1013.3 hPa | 0 mm | 0 m/s | - | - |
| 1777979268 | 14.44° C | 60% | 1013.4 hPa | 0 mm | 0.45 m/s, 218° | - | - |
| 1777978366 | 13.33° C | 60% | 1013.4 hPa | 0 mm | 0 m/s | - | - |
| 1777977466 | 13.89° C | 61% | 1013.5 hPa | 0 mm | 0.45 m/s, 170° | - | - |
| 1777976564 | 13.33° C | 62% | 1013.5 hPa | 0 mm | 0 m/s | - | - |
| 1777975663 | 12.78° C | 65% | 1013.4 hPa | 0 mm | 0 m/s | - | - |
| 1777974764 | 12.22° C | 65% | 1013.5 hPa | 0 mm | 0 m/s | - | - |
| 1777973861 | 13.89° C | 62% | 1013.5 hPa | 0 mm | 0.45 m/s, 225° | - | - |
| 1777972961 | 13.33° C | 63% | 1013.5 hPa | 0 mm | 0 m/s | - | - |
| 1777972059 | 12.22° C | 65% | 1013.6 hPa | 0 mm | 0 m/s | - | - |
| 1777971159 | 12.78° C | 65% | 1013.6 hPa | 0 mm | 0 m/s | - | - |
| 1777970260 | 11.67° C | 66% | 1013.7 hPa | 0 mm | 0 m/s | - | - |
| 1777969359 | 12.78° C | 67% | 1013.8 hPa | 0 mm | 0 m/s | - | - |
| 1777968459 | 12.22° C | 68% | 1013.7 hPa | 0 mm | 0 m/s | - | - |
| 1777967559 | 11.67° C | 70% | 1013.6 hPa | 0 mm | 0 m/s | - | - |
| 1777966659 | 11.67° C | 73% | 1013.5 hPa | 0 mm | 0 m/s | - | - |
| 1777965759 | 11.67° C | 72% | 1013.5 hPa | 0 mm | 0 m/s | - | - |
| 1777964859 | 10.56° C | 76% | 1013.6 hPa | 0 mm | 0 m/s | - | - |
| 1777963957 | 10° C | 78% | 1013.6 hPa | 0 mm | 0 m/s | - | - |
| 1777963057 | 10° C | 79% | 1013.7 hPa | 0 mm | 0 m/s | - | - |
* Rain latest hour (hover to see other rain measurements)
** Current wind speed in m/s (hover to see current wind gust speed)